WetterOnline ( https://www.wetteronline.ch )

Wetter aktuell München

Aktuelles Wetter: München/Stadt (535m)

6-stündlich | Neueste Meldungen
Ortszeit Temperatur Wetter
Mo, 06.02. 13:00 -0.4° C bedeckt
Mo, 06.02. 7:00 -2.7° C wolkenlos
Mo, 06.02. 1:00 -0.1° C bewölkt
So, 05.02. 19:00 1.5° C Sprühregen
So, 05.02. 13:00 3.2° C bedeckt
So, 05.02. 7:00 -2.8° C wolkig
So, 05.02. 1:00 -0.8° C leicht bewölkt
Sa, 04.02. 19:00 2.1° C bewölkt
Ortszeit Temperatur Wetter
Mo, 06.02. 16:30 -1.0° C bedeckt
Mo, 06.02. 16:20 -1.0° C bedeckt
Mo, 06.02. 16:10 -1.0° C bedeckt
Mo, 06.02. 16:00 -1.1° C bedeckt
Mo, 06.02. 15:50 -1.1° C bedeckt
Mo, 06.02. 15:40 -1.0° C bewölkt
Mo, 06.02. 15:30 -1.1° C bedeckt
Mo, 06.02. 15:00 -0.9° C bedeckt
Mo, 06.02. 14:30 -0.9° C bedeckt
Mo, 06.02. 14:00 -0.6° C bedeckt
Mo, 06.02. 13:30 -0.5° C bedeckt
Ortszeit Relative Feuchte Sichtweite
Mo, 06.02. 13:00 68% 40 km
Mo, 06.02. 7:00 87% 30 km
Mo, 06.02. 1:00 80% 35 km
So, 05.02. 19:00 94% 10 km
So, 05.02. 13:00 68% 45 km
So, 05.02. 7:00 89% 40 km
So, 05.02. 1:00 81% 50 km
Sa, 04.02. 19:00 73% 60 km
Ortszeit Relative Feuchte Sichtweite
Mo, 06.02. 16:30 65% 50 km
Mo, 06.02. 16:20 65% -
Mo, 06.02. 16:10 66% -
Mo, 06.02. 16:00 69% 40 km
Mo, 06.02. 15:50 69% -
Mo, 06.02. 15:40 70% -
Mo, 06.02. 15:30 73% 30 km
Mo, 06.02. 15:00 73% 35 km
Mo, 06.02. 14:30 71% 45 km
Mo, 06.02. 14:00 73% 40 km
Mo, 06.02. 13:30 70% 45 km
Ortszeit Niederschlagsmenge Niederschlagsart
Mo, 06.02. 13:00 0.0 l/m2 in 6 Std. -
Mo, 06.02. 7:00 0.1 l/m2 in 12 Std. -
Mo, 06.02. 1:00 0.1 l/m2 in 6 Std. Schnee, Regen
So, 05.02. 19:00 0.6 l/m2 in 12 Std. Schnee, Regen
So, 05.02. 13:00 0.0 l/m2 in 6 Std. -
So, 05.02. 7:00 0.0 l/m2 in 12 Std. -
So, 05.02. 1:00 0.0 l/m2 in 6 Std. -
Sa, 04.02. 19:00 0.1 l/m2 in 12 Std. Regen
Ortszeit Niederschlagsmenge Niederschlagsart
Mo, 06.02. 16:30 0.0 l/m2 in 30 Min -
Mo, 06.02. 16:20 keine Meldung -
Mo, 06.02. 16:10 keine Meldung -
Mo, 06.02. 16:00 <0.05 l/m2 in 1 Std. Schnee, Sprühregen
Mo, 06.02. 15:50 keine Meldung -
Mo, 06.02. 15:40 keine Meldung -
Mo, 06.02. 15:30 <0.05 l/m2 in 30 Min Regenschauer
Mo, 06.02. 15:00 <0.05 l/m2 in 1 Std. Schnee
Mo, 06.02. 14:30 0.0 l/m2 in 30 Min -
Mo, 06.02. 14:00 0.0 l/m2 in 1 Std. -
Mo, 06.02. 13:30 0.0 l/m2 in 30 Min -
Ortszeit Stärke Spitze Richtung
km/h Bft. km/h Grad Sektor
Mo, 06.02. 13:00 7 2 14 360° N
Mo, 06.02. 7:00 2 1 17 120° SO
Mo, 06.02. 1:00 7 2 17 40° NO
So, 05.02. 19:00 7 2 22 90° O
So, 05.02. 13:00 11 2 18 290° W
So, 05.02. 7:00 6 1 9 140° SO
So, 05.02. 1:00 2 1 15 280° W
Sa, 04.02. 19:00 9 2 19 350° N
Ortszeit Stärke Spitze Richtung
km/h Bft. km/h Grad Sektor
Mo, 06.02. 16:30 7 2 14 360° N
Mo, 06.02. 16:20 7 2 - 360° N
Mo, 06.02. 16:10 7 2 - 10° N
Mo, 06.02. 16:00 7 2 20 360° N
Mo, 06.02. 15:50 7 2 - 360° N
Mo, 06.02. 15:40 11 2 - 350° N
Mo, 06.02. 15:30 11 2 22 360° N
Mo, 06.02. 15:00 13 3 20 360° N
Mo, 06.02. 14:30 11 2 18 360° N
Mo, 06.02. 14:00 11 2 18 360° N
Mo, 06.02. 13:30 9 2 19 360° N
Ortszeit Untergrenze Bedeckung Gattung
total tief tief mittel hoch
Mo, 06.02. 13:00 660 m 8/8 8/8 - - -
Mo, 06.02. 7:00 - 0/8 0/8 - - -
Mo, 06.02. 1:00 720 m 7/8 7/8 - - -
So, 05.02. 19:00 180 m 8/8 8/8 - - -
So, 05.02. 13:00 990 m 8/8 8/8 - - -
So, 05.02. 7:00 3600 m 5/8 5/8 - - -
So, 05.02. 1:00 1230 m 3/8 2/8 - - -
Sa, 04.02. 19:00 900 m 7/8 7/8 - - -
Ortszeit Bedeckungsgrad in Achtel und Wolkenuntergrenze
Mo, 06.02. 16:30 2(630m) 8(2100m)
Mo, 06.02. 16:20 2(630m) 8(2100m)
Mo, 06.02. 16:10 8
Mo, 06.02. 16:00 7(660m) 7(780m) 8(2100m)
Mo, 06.02. 15:50 7(660m) 7(780m) 8(2100m)
Mo, 06.02. 15:40 7
Mo, 06.02. 15:30 8(600m)
Mo, 06.02. 15:00 8(540m)
Mo, 06.02. 14:30 7(570m) 8(690m)
Mo, 06.02. 14:00 8(630m)
Mo, 06.02. 13:30 8(630m) 8(2400m)
Ortszeit Luftdruck NN (hPa) Tendenz (hPa in 3 Std.)
Mo, 06.02. 13:00 1038 - 1,6
Mo, 06.02. 7:00 1039 - 0,2
Mo, 06.02. 1:00 1039 + 1,8
So, 05.02. 19:00 1036 + 0,5
So, 05.02. 13:00 1036 - 1,8
So, 05.02. 7:00 1039 - 0,8
So, 05.02. 1:00 1040 + 0,4
Sa, 04.02. 19:00 1039 + 1,4
Ortszeit Luftdruck NN (hPa) Tendenz (hPa in 3 Std.)
Mo, 06.02. 16:30 1037 - 0,6
Mo, 06.02. 16:20 1037 keine Meldung
Mo, 06.02. 16:10 1037 keine Meldung
Mo, 06.02. 16:00 1037 - 0,9
Mo, 06.02. 15:50 1037 keine Meldung
Mo, 06.02. 15:40 1037 keine Meldung
Mo, 06.02. 15:30 1037 - 1,0
Mo, 06.02. 15:00 1037 - 1,2
Mo, 06.02. 14:30 1037 - 2,1
Mo, 06.02. 14:00 1037 - 2,3
Mo, 06.02. 13:30 1038 - 1,8
Ortszeit Schneehöhe (cm)
Mo, 06.02. 13:00 0
Mo, 06.02. 7:00 0
Mo, 06.02. 1:00 0
So, 05.02. 19:00 0
So, 05.02. 13:00 0
So, 05.02. 7:00 0
So, 05.02. 1:00 0
Sa, 04.02. 19:00 0
Ortszeit Schneehöhe (cm)
Mo, 06.02. 16:30 0
Mo, 06.02. 16:20 0
Mo, 06.02. 16:10 0
Mo, 06.02. 16:00 0
Mo, 06.02. 15:50 0
Mo, 06.02. 15:40 0
Mo, 06.02. 15:30 0
Mo, 06.02. 15:00 0
Mo, 06.02. 14:30 0
Mo, 06.02. 14:00 0
Mo, 06.02. 13:30 0
Link zu dieser Seite / Seite empfehlen

Das Wetter in ...